Latest Weather Observations for Ben Nevis

IDV60801

Issued at 4:22 pm EDT Monday 30 March 2020 (issued every 10 minutes, with the page automatically refreshed every 10 minutes)

About weather observations | Map of weather stations | Latest weather observations for VIC | Other Formats
Station Details ID: 079101 Name: BEN NEVIS Lat: -37.23 Lon: 143.20 Height: 875.0 m
Data from the previous 72 hours. | See also: Recent months at Ben Nevis
Date/Time
EDT
Temp
°C
App
Temp
°C
Dew
Point
°C
Rel
Hum
%
Delta-T
°C
Wind Press
QNH
hPa
Press
MSL
hPa
Rain since
9am
mm
Dir  Spd
km/h
Gust
km/h
Spd
kts
Gust
kts
30/04:00pm 17.5 13.4 6.4 48 5.7 WSW 17 28 9 15 - - 0.0
30/03:30pm 17.7 14.7 7.7 52 5.3 WSW 13 22 7 12 - - 0.0
30/03:00pm 15.7 12.8 6.7 55 4.6 SSW 11 20 6 11 - - 0.0
30/02:30pm 16.8 13.9 8.0 56 4.7 WSW 13 22 7 12 - - 0.0
30/02:00pm 16.4 14.2 9.3 63 3.9 W 11 20 6 11 - - 0.0
30/01:30pm 14.9 13.0 9.1 68 3.1 W 9 13 5 7 - - 0.0
30/01:00pm 13.8 11.8 8.8 72 2.6 W 9 15 5 8 - - 0.0
30/12:30pm 14.0 11.5 8.0 67 3.1 W 11 20 6 11 - - 0.0
30/12:00pm 13.6 10.8 8.7 72 2.6 WSW 13 24 7 13 - - 0.0
30/11:30am 12.1 8.3 7.6 74 2.3 SW 17 26 9 14 - - 0.0
30/11:00am 11.4 7.7 7.9 79 1.8 WSW 17 28 9 15 - - 0.0
30/10:30am 11.7 8.0 7.8 77 2.0 SW 17 28 9 15 - - 0.0
30/10:00am 10.6 6.3 7.8 83 1.4 SW 20 28 11 15 - - 0.0
30/09:30am 9.8 5.4 7.2 84 1.3 WSW 20 30 11 16 - - 0.0
30/09:00am 9.2 3.9 7.0 86 1.1 SW 24 32 13 17 - - 7.8
30/08:30am 8.6 3.7 6.9 89 0.8 SW 22 39 12 21 - - 7.8
30/08:00am 8.1 2.8 6.7 91 0.7 SW 24 33 13 18 - - 7.8
30/07:30am 7.8 3.0 7.4 97 0.2 SW 22 30 12 16 - - 7.8
30/07:00am 8.1 3.0 7.8 98 0.1 SW 24 33 13 18 - - 7.8
30/06:30am 8.4 3.8 8.1 98 0.2 SW 22 32 12 17 - - 7.8
30/06:00am 8.8 4.3 8.5 98 0.2 SW 22 32 12 17 - - 7.8
30/05:30am 9.6 6.2 9.3 98 0.2 SW 17 24 9 13 - - 7.8
30/05:00am 9.9 7.3 9.4 97 0.3 SW 13 19 7 10 - - 7.8
30/04:30am 9.7 6.6 8.8 94 0.5 SW 15 20 8 11 - - 7.8
30/04:00am 9.9 6.6 8.0 88 1.0 SW 15 19 8 10 - - 7.8
30/03:30am 10.6 6.3 7.8 83 1.4 WSW 20 28 11 15 - - 7.8
30/03:00am 10.7 6.3 7.2 79 1.8 WSW 20 26 11 14 - - 7.8
30/02:30am 10.6 6.9 8.0 84 1.3 SW 17 20 9 11 - - 7.8
30/02:00am 11.2 8.4 6.9 75 2.1 WSW 11 19 6 10 - - 7.8
30/01:30am 11.2 8.5 8.9 86 1.2 SSW 13 19 7 10 - - 7.8
30/01:00am 11.6 8.9 8.8 83 1.5 SSW 13 19 7 10 - - 7.8
30/12:30am 12.0 8.9 8.7 80 1.7 SSW 15 19 8 10 - - 7.8
30/12:00am 12.7 10.0 8.8 77 2.0 SW 13 20 7 11 - - 7.8
 
Date/Time
EDT
Temp
°C
App
Temp
°C
Dew
Point
°C
Rel
Hum
%
Delta-T
°C
Wind Press
QNH
hPa
Press
MSL
hPa
Rain since
9am
mm
Dir  Spd
km/h
Gust
km/h
Spd
kts
Gust
kts
29/11:30pm 14.3 10.6 9.5 73 2.6 W 19 26 10 14 - - 7.8
29/11:00pm 14.5 10.8 10.1 75 2.4 WSW 20 30 11 16 - - 7.8
29/10:30pm 14.9 11.3 10.7 76 2.3 WSW 20 24 11 13 - - 7.8
29/10:00pm 15.7 13.0 10.5 71 2.9 W 15 24 8 13 - - 7.8
29/09:30pm 16.2 14.6 10.3 68 3.3 WNW 9 17 5 9 - - 7.8
29/09:00pm 16.2 14.5 9.8 66 3.5 NW 9 20 5 11 - - 7.8
29/08:30pm 16.5 14.8 9.9 65 3.6 NNE 9 20 5 11 - - 7.8
29/08:00pm 16.7 15.0 9.9 64 3.7 ENE 9 13 5 7 - - 7.8
29/07:30pm 17.0 15.3 9.7 62 4.0 ENE 9 17 5 9 - - 7.8
29/07:00pm 17.5 15.0 9.7 60 4.3 NE 13 24 7 13 - - 7.8
29/06:30pm 17.8 15.4 9.9 60 4.4 N 13 32 7 17 - - 7.8
29/06:00pm 17.5 14.7 11.5 68 3.4 N 17 32 9 17 - - 7.8
29/05:30pm 17.8 15.1 11.6 67 3.5 N 17 32 9 17 - - 7.8
29/05:00pm 18.4 16.5 11.7 65 3.8 NNE 13 28 7 15 - - 7.8
29/04:30pm 16.9 14.0 11.0 68 3.3 NNW 17 32 9 17 - - 7.8
29/04:00pm 17.7 14.7 12.6 72 3.0 NNW 20 35 11 19 - - 7.8
29/03:30pm 16.7 13.6 12.3 75 2.5 NNW 20 44 11 24 - - 7.8
29/03:00pm 14.7 10.3 11.7 82 1.7 NNW 26 46 14 25 - - 7.8
29/02:52pm 14.5 9.6 11.3 81 1.8 NNW 28 48 15 26 - - 7.8
29/02:30pm 13.6 9.6 11.7 88 1.1 N 24 35 13 19 - - 7.8
29/02:00pm 13.1 10.9 12.2 94 0.5 NNW 15 35 8 19 - - 7.8
29/01:30pm 13.7 11.8 13.1 96 0.3 NNW 15 32 8 17 - - 7.6
29/01:00pm 13.9 12.4 13.1 95 0.5 NNW 13 26 7 14 - - 6.8
29/12:30pm 14.3 11.8 13.5 95 0.5 W 19 44 10 24 - - 5.8
29/12:00pm 15.7 13.0 13.0 84 1.6 N 19 30 10 16 - - 0.0
29/11:30am 17.3 13.7 11.8 70 3.1 N 22 37 12 20 - - 0.0
29/11:00am 17.7 14.1 11.7 68 3.4 N 22 39 12 21 - - 0.0
29/10:30am 16.9 12.8 11.6 71 3.0 N 24 48 13 26 - - 0.0
29/10:02am 16.4 11.4 11.1 71 3.0 N 28 48 15 26 - - 0.0
29/10:00am 16.5 11.9 11.2 71 3.0 N 26 48 14 26 - - 0.0
29/09:30am 16.4 10.4 10.9 70 3.1 NNE 33 52 18 28 - - 0.0
29/09:00am 16.4 9.8 11.3 72 2.9 NNE 37 56 20 30 - - 0.0
29/08:30am 16.4 10.1 10.9 70 3.1 NNE 35 54 19 29 - - 0.0
29/08:00am 16.1 9.7 10.6 70 3.1 NNE 35 57 19 31 - - 0.0
29/07:31am 16.0 9.9 10.5 70 3.0 N 33 52 18 28 - - 0.0
29/07:30am 16.1 10.0 10.4 69 3.2 NNE 33 50 18 27 - - 0.0
29/07:09am 15.9 10.0 10.4 70 3.0 NNE 32 50 17 27 - - 0.0
29/07:00am 15.8 9.9 10.3 70 3.0 NNE 32 46 17 25 - - 0.0
29/06:30am 15.8 9.2 9.9 68 3.2 NNE 35 57 19 31 - - 0.0
29/06:00am 15.9 9.2 9.8 67 3.3 NNE 35 65 19 35 - - 0.0
29/05:30am 16.0 8.5 9.4 65 3.6 NNE 39 61 21 33 - - 0.0
29/05:00am 16.3 8.0 9.3 63 3.8 NNE 43 65 23 35 - - 0.0
29/04:30am 16.4 8.3 8.6 60 4.2 NNE 41 69 22 37 - - 0.0
29/04:00am 16.6 8.4 8.1 57 4.5 NNE 41 67 22 36 - - 0.0
29/03:30am 16.8 8.4 7.4 54 4.9 NNE 41 69 22 37 - - 0.0
29/03:00am 16.9 8.8 7.0 52 5.2 NNE 39 65 21 35 - - 0.0
29/02:30am 16.9 8.4 7.0 52 5.2 NNE 41 69 22 37 - - 0.0
29/02:00am 17.1 9.0 6.9 51 5.3 NNE 39 67 21 36 - - 0.0
29/01:30am 17.1 9.0 6.9 51 5.3 NNE 39 69 21 37 - - 0.0
29/01:00am 17.1 9.0 7.2 52 5.2 NNE 39 61 21 33 - - 0.0
29/12:30am 17.1 8.7 7.5 53 5.0 NNE 41 61 22 33 - - 0.0
29/12:00am 17.2 8.8 7.5 53 5.1 NNE 41 59 22 32 - - 0.0
 
Date/Time
EDT
Temp
°C
App
Temp
°C
Dew
Point
°C
Rel
Hum
%
Delta-T
°C
Wind Press
QNH
hPa
Press
MSL
hPa
Rain since
9am
mm
Dir  Spd
km/h
Gust
km/h
Spd
kts
Gust
kts
28/11:30pm 17.6 10.1 7.9 53 5.2 NNE 37 61 20 33 - - 0.0
28/11:00pm 18.0 12.3 8.3 53 5.2 NNE 28 50 15 27 - - 0.0
28/10:30pm 18.2 11.6 8.5 53 5.2 NNE 33 56 18 30 - - 0.0
28/10:06pm 18.3 11.4 8.8 54 5.2 NNE 35 57 19 31 - - 0.0
28/10:00pm 18.2 11.8 8.7 54 5.1 NNE 32 46 17 25 - - 0.0
28/09:31pm 18.5 12.9 8.7 53 5.3 NNE 28 52 15 28 - - 0.0
28/09:30pm 18.6 13.4 8.8 53 5.3 NNE 26 52 14 28 - - 0.0
28/09:00pm 18.9 12.9 8.8 52 5.5 NNE 30 50 16 27 - - 0.0
28/08:37pm 19.0 13.4 8.6 51 5.6 NNE 28 50 15 27 - - 0.0
28/08:30pm 19.0 14.1 8.4 50 5.7 NNE 24 41 13 22 - - 0.0
28/08:00pm 19.3 14.4 8.6 50 5.8 NNE 24 39 13 21 - - 0.0
28/07:30pm 19.3 14.9 8.9 51 5.7 NNE 22 39 12 21 - - 0.0
28/07:00pm 19.7 15.4 9.3 51 5.7 N 22 37 12 20 - - 0.0
28/06:30pm 19.9 15.6 9.5 51 5.8 NNE 22 41 12 22 - - 0.0
28/06:01pm 20.1 14.7 9.4 50 5.9 NNE 28 46 15 25 - - 0.0
28/06:00pm 20.1 15.1 9.7 51 5.8 NNE 26 46 14 25 - - 0.0
28/05:30pm 21.1 17.1 10.6 51 6.0 NNE 22 44 12 24 - - 0.0
28/05:00pm 20.4 16.2 9.9 51 5.9 NNE 22 39 12 21 - - 0.0
28/04:30pm 20.9 17.3 10.7 52 5.8 NNE 20 41 11 22 - - 0.0
28/04:00pm 20.7 16.3 10.5 52 5.8 N 24 37 13 20 - - 0.0
28/03:30pm 21.0 17.5 10.8 52 5.8 N 20 39 11 21 - - 0.0
28/03:00pm 22.1 18.7 11.2 50 6.3 N 20 35 11 19 - - 0.0
28/02:30pm 22.5 19.2 11.6 50 6.4 N 20 48 11 26 - - 0.0
28/02:00pm 22.1 19.4 11.8 52 6.0 N 17 30 9 16 - - 0.0
28/01:30pm 20.3 17.1 11.2 56 5.2 N 19 35 10 19 - - 0.0
28/01:00pm 22.0 19.4 12.0 53 5.9 NNE 17 37 9 20 - - 0.0
28/12:30pm 21.1 17.7 11.2 53 5.7 NNE 20 33 11 18 - - 0.0
28/12:00pm 17.7 14.2 11.0 65 3.8 NNE 20 33 11 18 - - 0.0
28/11:30am 17.5 14.0 10.9 65 3.7 NNE 20 35 11 19 - - 0.0
28/11:00am 18.4 14.9 11.0 62 4.2 N 20 35 11 19 - - 0.0
28/10:30am 17.2 13.1 10.1 63 3.9 N 22 41 12 22 - - 0.0
28/10:00am 17.4 12.8 9.8 61 4.2 NNE 24 50 13 27 - - 0.0
28/09:31am 17.2 11.6 8.6 57 4.6 N 28 46 15 25 - - 0.0
28/09:30am 17.2 11.9 8.4 56 4.7 NNE 26 43 14 23 - - 0.0
28/09:05am 16.7 10.9 8.1 57 4.6 NNE 28 46 15 25 - - 0.0
28/09:00am 16.9 11.1 8.1 56 4.7 NNE 28 43 15 23 - - 0.0
28/08:51am 17.1 11.4 8.3 56 4.7 NNE 28 50 15 27 - - 0.0
28/08:30am 16.4 10.6 7.9 57 4.5 NNE 28 44 15 24 - - 0.0
28/08:00am 15.7 10.9 7.2 57 4.4 NNE 22 46 12 25 - - 0.0
28/07:30am 15.6 10.7 7.1 57 4.4 NNE 22 39 12 21 - - 0.0
28/07:00am 15.6 9.5 6.6 55 4.6 NNE 28 43 15 23 - - 0.0
28/06:30am 15.6 9.7 5.8 52 4.9 NNE 26 43 14 23 - - 0.0
28/06:00am 15.7 9.4 5.9 52 4.9 NNE 28 41 15 22 - - 0.0
28/05:30am 15.8 9.2 6.0 52 5.0 NNE 30 43 16 23 - - 0.0
28/05:00am 16.0 9.4 6.2 52 5.0 NNE 30 44 16 24 - - 0.0
28/04:36am 16.1 9.9 6.3 52 5.0 NNE 28 46 15 25 - - 0.0
28/04:30am 16.1 9.2 6.3 52 5.0 NNE 32 44 17 24 - - 0.0
28/04:20am 16.2 10.0 6.3 52 5.1 NNE 28 46 15 25 - - 0.0
28/04:00am 16.1 10.7 6.5 53 4.9 NNE 24 41 13 22 - - 0.0
28/03:30am 16.2 10.9 6.9 54 4.8 NNE 24 41 13 22 - - 0.0
28/03:00am 16.2 11.2 6.6 53 4.9 NNE 22 39 12 21 - - 0.0
28/02:30am 16.1 11.6 6.8 54 4.8 NNE 20 33 11 18 - - 0.0
28/02:00am 16.3 11.7 6.4 52 5.1 NNE 20 33 11 18 - - 0.0
28/01:30am 16.6 10.9 6.7 52 5.1 NNE 26 39 14 21 - - 0.0
28/01:17am 16.5 10.4 6.6 52 5.1 NNE 28 46 15 25 - - 0.0
28/01:00am 16.5 10.0 6.6 52 5.1 NNE 30 46 16 25 - - 0.0
28/12:30am 16.5 11.2 6.6 52 5.1 NNE 24 39 13 21 - - 0.0
28/12:00am 16.8 11.1 6.9 52 5.1 NNE 26 41 14 22 - - 0.0
 
Date/Time
EDT
Temp
°C
App
Temp
°C
Dew
Point
°C
Rel
Hum
%
Delta-T
°C
Wind Press
QNH
hPa
Press
MSL
hPa
Rain since
9am
mm
Dir  Spd
km/h
Gust
km/h
Spd
kts
Gust
kts
27/11:30pm 16.9 10.5 7.0 52 5.2 NNE 30 41 16 22 - - 0.0
27/11:00pm 16.9 10.5 7.0 52 5.2 NNE 30 43 16 23 - - 0.0
27/10:30pm 17.1 10.8 7.2 52 5.2 NNE 30 39 16 21 - - 0.0
27/10:00pm 17.3 11.4 7.4 52 5.2 NNE 28 39 15 21 - - 0.0
27/09:30pm 17.5 12.0 7.5 52 5.3 NNE 26 37 14 20 - - 0.0
27/09:00pm 17.7 12.6 7.7 52 5.3 NNE 24 35 13 19 - - 0.0
27/08:30pm 17.8 13.2 8.1 53 5.2 NNE 22 32 12 17 - - 0.0
27/08:00pm 18.0 13.5 8.6 54 5.1 NNE 22 32 12 17 - - 0.0
27/07:30pm 18.0 14.1 8.8 55 5.0 NE 19 24 10 13 - - 0.0
27/07:00pm 18.5 15.4 8.7 53 5.3 NNE 15 28 8 15 - - 0.0
27/06:30pm 18.8 16.4 8.7 52 5.5 NNE 11 20 6 11 - - 0.0
27/06:00pm 19.3 16.6 8.9 51 5.7 NNE 13 22 7 12 - - 0.0
27/05:30pm 20.2 17.6 9.5 50 5.9 NNE 13 20 7 11 - - 0.0
27/05:00pm 19.9 16.9 9.2 50 5.9 N 15 24 8 13 - - 0.0
27/04:30pm 20.3 19.0 9.8 51 5.9 N 7 15 4 8 - - 0.0

Other formats

Comma delimited format used in spreadsheet applications
http://www.bom.gov.au/fwo/IDV60801/IDV60801.94835.axf

JavaScript Object Notation format (JSON) in row-major order
http://www.bom.gov.au/fwo/IDV60801/IDV60801.94835.json

Data quality

Most of these data are generated automatically and are frequently updated. Quality checks on data are not normally performed. It is possible for incorrect values to appear. Refer to information at About Latest Weather Observations and please check the disclaimer before using these data.